Latest Weather Observations for Naracoorte

IDS60801

Issued at 6:01 am CST Sunday 1 May 2016 (issued every 30 minutes, with the page automatically refreshed every 10 minutes)

About weather observations | Map of weather stations | Latest weather observations for SA | Other Formats
Station Details ID: 026099 Name: NARACOORTE AERODROME Lat: -36.98 Lon: 140.73 Height: 49.72 m
Data from the previous 72 hours. | See also: Recent months at Naracoorte
Date/Time
CST
Temp
°C
App
Temp
°C
Dew
Point
Rel
Hum
%
Delta-T
°C
Wind Press
QNH
hPa
Press
MSL
hPa
Rain
since 9 am
mm
Dir
 
Spd
km/h
Gust
km/h
Spd
kts
Gust
kts
01/06:00am 10.1 5.6 8.7 91 0.7 WNW 22 28 12 15 1008.4 1008.4 2.6
01/05:30am 10.3 4.7 8.7 90 0.8 W 28 35 15 19 1007.8 1007.8 2.4
01/05:01am 11.3 5.9 9.4 88 1.0 NW 28 50 15 27 1007.2 1007.2 1.8
01/05:00am 11.4 6.5 9.8 90 0.8 NW 26 41 14 22 1007.1 1007.1 1.8
01/04:30am 11.2 7.9 9.6 90 0.8 NW 17 24 9 13 1006.2 1006.2 1.6
01/04:00am 11.4 6.8 9.5 88 1.0 WNW 24 30 13 16 1005.9 1005.9 1.4
01/03:30am 11.7 5.8 10.3 91 0.7 W 32 44 17 24 1005.8 1005.7 1.2
01/03:14am 11.9 5.8 10.6 92 0.7 WNW 33 50 18 27 1005.3 1005.2 1.2
01/03:00am 12.3 7.8 10.2 87 1.1 NW 24 30 13 16 1004.8 1004.7 0.0
01/02:30am 12.4 7.5 10.0 85 1.2 NW 26 33 14 18 1004.4 1004.3 0.0
01/02:00am 12.8 8.2 9.8 82 1.5 NW 24 33 13 18 1004.6 1004.5 0.0
01/01:30am 13.1 8.9 9.9 81 1.7 WNW 22 28 12 15 1004.6 1004.5 0.0
01/01:00am 13.8 8.0 9.5 75 2.2 WNW 30 37 16 20 1004.5 1004.4 0.0
01/12:30am 14.1 6.2 9.3 73 2.5 WNW 41 50 22 27 1004.4 1004.3 0.0
01/12:03am 16.0 8.9 11.0 72 2.7 WNW 39 69 21 37 1004.3 1004.2 0.0
01/12:01am 16.4 10.5 11.1 71 2.9 WNW 33 52 18 28 1004.5 1004.4 0.0
01/12:00am 16.4 10.5 11.1 71 2.9 WNW 33 44 18 24 1004.4 1004.3 0.0
 
Date/Time
CST
Temp
°C
App
Temp
°C
Dew
Point
Rel
Hum
%
Delta-T
°C
Wind Press
QNH
hPa
Press
MSL
hPa
Rain
since 9 am
mm
Dir
 
Spd
km/h
Gust
km/h
Spd
kts
Gust
kts
30/11:43pm 17.3 9.8 10.9 66 3.4 NW 41 70 22 38 1003.9 1003.8 0.0
30/11:30pm 17.1 9.2 10.7 66 3.4 NW 43 57 23 31 1003.9 1003.8 0.0
30/11:00pm 17.1 11.3 10.9 67 3.3 NNW 32 57 17 31 1004.2 1004.1 0.0
30/10:54pm 16.9 11.4 10.7 67 3.3 NNW 30 48 16 26 1004.4 1004.3 0.0
30/10:30pm 18.3 13.0 9.9 58 4.5 NNW 28 44 15 24 1004.0 1003.9 0.0
30/10:29pm 18.3 12.9 9.6 57 4.6 NNW 28 44 15 24 1004.0 1003.9 0.0
30/10:00pm 18.3 14.9 9.1 55 4.8 N 17 22 9 12 1003.9 1003.8 0.0
30/09:30pm 17.4 14.7 9.1 58 4.3 NNE 13 17 7 9 1004.0 1003.9 0.0
30/09:00pm 17.6 14.5 8.7 56 4.6 NNW 15 28 8 15 1004.7 1004.6 0.0
30/08:30pm 18.5 14.7 7.6 49 5.6 NNE 17 19 9 10 1004.0 1003.9 0.0
30/08:00pm 18.3 15.8 8.0 51 5.3 N 11 15 6 8 1005.1 1005.0 0.0
30/07:30pm 17.3 15.2 8.4 56 4.6 N 9 13 5 7 1005.6 1005.5 0.0
30/07:00pm 18.7 16.5 9.2 54 5.0 NNW 11 13 6 7 1005.8 1005.7 0.0
30/06:30pm 21.3 18.2 8.9 45 6.6 N 15 20 8 11 1005.8 1005.7 0.0
30/06:00pm 21.6 18.1 8.8 44 6.8 N 17 24 9 13 1005.7 1005.6 0.0
30/05:30pm 21.8 18.3 8.7 43 7.0 N 17 20 9 11 1005.7 1005.6 0.0
30/05:00pm 22.8 18.7 8.5 40 7.6 N 20 30 11 16 1005.9 1005.9 0.0
30/04:30pm 23.5 19.0 8.4 38 8.1 NNW 22 33 12 18 1006.1 1006.1 0.0
30/04:00pm 23.7 17.9 7.8 36 8.4 N 28 37 15 20 1006.5 1006.5 0.0
30/03:30pm 24.0 17.7 7.2 34 8.8 NNW 30 41 16 22 1007.0 1007.0 0.0
30/03:00pm 23.9 18.0 7.5 35 8.6 NNW 28 39 15 21 1007.3 1007.3 0.0
30/02:57pm 23.9 17.9 7.1 34 8.8 NNW 28 46 15 25 1007.4 1007.4 0.0
30/02:30pm 23.8 17.9 7.4 35 8.6 NNW 28 41 15 22 1007.7 1007.7 0.0
30/02:00pm 23.5 17.9 7.2 35 8.5 NNW 26 35 14 19 1008.0 1008.0 0.0
30/01:30pm 23.2 17.9 8.5 39 7.8 NNW 26 33 14 18 1008.5 1008.5 0.0
30/01:00pm 22.8 17.9 8.5 40 7.6 NNW 24 39 13 21 1009.2 1009.2 0.0
30/12:30pm 22.6 17.1 9.0 42 7.3 NW 28 37 15 20 1010.0 1010.0 0.0
30/12:00pm 21.9 16.5 9.4 45 6.7 NW 28 39 15 21 1010.6 1010.6 0.0
30/11:30am 21.7 16.2 9.3 45 6.7 NNW 28 37 15 20 1011.1 1011.1 0.0
30/11:00am 20.8 14.4 9.4 48 6.1 NNW 33 46 18 25 1011.6 1011.6 0.0
30/10:30am 20.1 14.7 10.8 55 5.1 NNW 30 39 16 21 1011.9 1011.9 0.0
30/10:00am 19.2 15.3 12.0 63 4.0 NNW 24 32 13 17 1011.9 1011.9 0.0
30/09:30am 18.3 15.4 12.3 68 3.3 NNW 19 24 10 13 1012.1 1012.1 0.0
30/09:00am 17.4 14.4 12.5 73 2.7 NNW 20 30 11 16 1012.2 1012.2 5.0
30/08:30am 16.4 13.4 12.0 75 2.4 N 19 26 10 14 1012.3 1012.3 5.0
30/08:00am 15.5 13.0 12.3 81 1.8 N 17 22 9 12 1012.4 1012.4 5.0
30/07:30am 14.2 12.4 12.1 87 1.1 N 13 15 7 8 1012.0 1012.0 5.0
30/07:00am 13.8 12.0 12.2 90 0.9 N 13 15 7 8 1011.7 1011.7 5.0
30/06:30am 13.4 12.0 12.3 93 0.6 N 11 15 6 8 1011.7 1011.7 5.0
30/06:00am 12.8 10.9 11.7 93 0.6 NNE 13 15 7 8 1011.5 1011.5 5.0
30/05:30am 13.0 11.7 11.4 90 0.8 N 9 13 5 7 1011.3 1011.3 5.0
30/05:00am 14.1 12.8 12.5 90 0.9 N 11 13 6 7 1011.4 1011.4 5.0
30/04:30am 14.1 13.2 12.5 90 0.9 N 9 13 5 7 1011.3 1011.3 5.0
30/04:00am 14.4 13.5 12.6 89 1.0 N 9 13 5 7 1011.1 1011.1 5.0
30/03:30am 14.8 13.7 13.0 89 1.0 N 11 17 6 9 1011.0 1011.0 5.0
30/03:00am 14.9 13.0 12.9 88 1.1 N 15 20 8 11 1011.1 1011.1 5.0
30/02:30am 14.9 13.3 12.9 88 1.1 N 13 20 7 11 1011.3 1011.3 5.0
30/02:00am 14.8 12.5 13.0 89 1.0 N 17 20 9 11 1011.5 1011.5 5.0
30/01:30am 14.9 13.0 13.1 89 1.0 N 15 17 8 9 1011.5 1011.5 5.0
30/01:00am 15.1 13.3 13.3 89 1.0 N 15 19 8 10 1011.6 1011.6 5.0
30/12:30am 14.9 13.4 13.1 89 1.0 N 13 17 7 9 1011.7 1011.7 5.0
30/12:00am 15.0 13.2 13.4 90 0.9 NNE 15 19 8 10 1011.7 1011.7 5.0
 
Date/Time
CST
Temp
°C
App
Temp
°C
Dew
Point
Rel
Hum
%
Delta-T
°C
Wind Press
QNH
hPa
Press
MSL
hPa
Rain
since 9 am
mm
Dir
 
Spd
km/h
Gust
km/h
Spd
kts
Gust
kts
29/11:30pm 14.9 13.5 13.4 91 0.8 NNE 13 15 7 8 1011.8 1011.8 5.0
29/11:00pm 15.1 13.8 13.8 92 0.7 NNE 13 17 7 9 1012.0 1012.0 5.0
29/10:30pm 15.2 13.6 13.9 92 0.7 NNE 15 20 8 11 1012.2 1012.2 5.0
29/10:00pm 15.4 13.9 14.3 93 0.6 NNE 15 19 8 10 1012.4 1012.4 4.8
29/09:30pm 14.9 13.7 13.9 94 0.6 NNE 13 15 7 8 1012.6 1012.6 4.8
29/09:00pm 14.8 13.9 13.8 94 0.6 NE 11 13 6 7 1012.6 1012.6 4.8
29/08:30pm 15.1 14.3 14.1 94 0.6 NNE 11 15 6 8 1012.4 1012.4 4.8
29/08:00pm 15.0 14.2 13.9 93 0.6 NNE 11 13 6 7 1012.3 1012.3 4.8
29/07:30pm 14.9 14.0 13.8 93 0.6 NNE 11 13 6 7 1012.1 1012.1 4.8
29/07:00pm 14.9 14.4 13.8 93 0.6 NNE 9 13 5 7 1012.1 1012.1 4.8
29/06:30pm 14.4 15.4 13.3 93 0.6 CALM 0 0 0 0 1012.1 1012.1 4.8
29/06:00pm 15.5 16.7 13.7 89 1.0 CALM 0 0 0 0 1012.0 1012.0 4.8
29/05:30pm 16.7 16.7 14.3 86 1.4 NNW 7 9 4 5 1011.9 1011.9 4.8
29/05:00pm 17.4 16.8 14.7 84 1.6 NNW 11 13 6 7 1011.8 1011.8 4.8
29/04:30pm 18.0 16.7 14.7 81 1.9 NNW 15 20 8 11 1011.6 1011.6 4.8
29/04:00pm 18.3 16.2 14.6 79 2.1 NW 19 22 10 12 1011.5 1011.5 4.8
29/03:30pm 18.0 16.4 15.1 83 1.7 NNW 17 22 9 12 1011.7 1011.7 4.8
29/03:00pm 17.3 15.4 15.1 87 1.3 NNW 19 24 10 13 1011.4 1011.4 4.8
29/02:30pm 17.0 15.1 15.3 90 1.0 NW 19 26 10 14 1011.1 1011.1 4.8
29/02:00pm 15.9 13.8 14.6 92 0.7 NNW 19 28 10 15 1011.0 1011.0 4.8
29/01:30pm 16.3 12.8 14.5 89 1.0 NW 26 35 14 19 1011.2 1011.2 4.8
29/01:00pm 16.1 14.2 15.1 94 0.6 NNW 19 26 10 14 1011.2 1011.2 4.6
29/12:30pm 16.5 16.0 14.9 90 0.9 NNW 11 15 6 8 1011.5 1011.5 2.0
29/12:00pm 16.4 15.8 14.6 89 1.0 NNW 11 17 6 9 1011.6 1011.6 2.0
29/11:30am 16.0 14.4 13.8 87 1.2 NW 15 20 8 11 1012.1 1012.1 2.0
29/11:00am 15.5 13.0 14.0 91 0.8 NW 20 30 11 16 1012.4 1012.4 1.8
29/10:30am 16.0 14.6 14.5 91 0.9 NNW 15 20 8 11 1012.5 1012.5 0.8
29/10:00am 15.9 14.9 14.6 92 0.7 NNW 13 17 7 9 1012.6 1012.6 0.4
29/09:30am 15.8 13.9 14.3 91 0.9 NNW 17 22 9 12 1013.0 1013.0 0.2
29/09:00am 15.9 13.7 14.4 91 0.9 NNW 19 26 10 14 1013.2 1013.2 3.4
29/08:30am 16.0 14.6 14.5 91 0.9 N 15 24 8 13 1012.6 1012.6 3.2
29/08:00am 15.8 13.5 14.0 89 1.0 NNW 19 24 10 13 1012.9 1012.9 2.8
29/07:30am 15.8 13.1 13.6 87 1.2 NNW 20 26 11 14 1012.6 1012.6 2.6
29/07:00am 16.1 13.4 13.4 84 1.5 NNW 20 28 11 15 1012.3 1012.3 2.4
29/06:30am 16.6 13.1 13.3 81 1.9 NNW 24 35 13 19 1012.5 1012.5 2.2
29/06:00am 17.5 13.1 12.8 74 2.6 N 28 39 15 21 1012.5 1012.5 1.8
29/05:30am 17.2 12.7 12.7 75 2.5 N 28 37 15 20 1012.2 1012.2 1.8
29/05:00am 17.9 13.7 12.4 70 3.1 N 26 43 14 23 1012.1 1012.1 1.6
29/04:30am 18.4 14.2 12.4 68 3.3 N 26 35 14 19 1012.1 1012.1 1.6
29/04:00am 16.9 13.5 12.6 76 2.4 NNW 22 30 12 16 1012.6 1012.6 1.6
29/03:30am 18.2 12.8 11.0 63 3.9 N 30 44 16 24 1012.6 1012.6 1.2
29/03:00am 19.7 13.7 10.1 54 5.2 N 32 44 17 24 1012.1 1012.1 1.0
29/02:30am 18.2 14.0 11.0 63 3.9 NNE 24 32 13 17 1011.3 1011.3 0.8
29/02:00am 19.2 14.9 10.7 58 4.6 NNE 24 32 13 17 1010.7 1010.7 0.4
29/01:30am 18.7 14.6 11.3 62 4.1 NE 24 32 13 17 1011.1 1011.1 0.4
29/01:00am 18.2 14.0 12.4 69 3.2 NE 26 33 14 18 1011.5 1011.5 0.4
29/12:30am 18.2 14.3 13.3 73 2.8 NE 26 35 14 19 1011.6 1011.6 0.4
29/12:00am 16.9 14.4 14.2 84 1.5 NE 20 28 11 15 1011.8 1011.8 0.4
 
Date/Time
CST
Temp
°C
App
Temp
°C
Dew
Point
Rel
Hum
%
Delta-T
°C
Wind Press
QNH
hPa
Press
MSL
hPa
Rain
since 9 am
mm
Dir
 
Spd
km/h
Gust
km/h
Spd
kts
Gust
kts
28/11:30pm 16.7 16.1 14.7 88 1.2 ENE 11 17 6 9 1013.0 1013.0 0.4
28/11:00pm 16.5 17.0 15.0 91 0.9 NE 6 6 3 3 1013.9 1013.9 0.4
28/10:30pm 16.2 16.1 14.9 92 0.7 NE 9 11 5 6 1014.2 1014.2 0.4
28/10:00pm 15.9 15.4 14.8 93 0.6 E 11 15 6 8 1014.3 1014.3 0.4
28/09:30pm 15.7 14.7 14.6 93 0.6 SW 13 20 7 11 1015.5 1015.5 0.2
28/09:00pm 16.1 15.8 14.5 90 0.9 E 9 9 5 5 1014.6 1014.6 0.2
28/08:30pm 15.9 15.9 14.3 90 0.9 E 7 11 4 6 1014.4 1014.4 0.2
28/08:00pm 15.8 15.1 14.3 91 0.9 ESE 11 15 6 8 1014.8 1014.8 0.2
28/07:30pm 15.4 14.6 13.9 91 0.8 S 11 15 6 8 1015.4 1015.4 0.2
28/07:00pm 16.2 15.6 14.6 90 0.9 WSW 11 13 6 7 1015.1 1015.1 0.2
28/06:30pm 17.1 17.0 14.9 87 1.3 N 9 13 5 7 1014.7 1014.7 0.2
28/06:00pm 17.0 15.3 14.8 87 1.3 NE 17 20 9 11 1014.3 1014.3 0.2
28/05:30pm 16.9 15.8 14.2 84 1.5 NE 13 17 7 9 1014.4 1014.4 0.2
28/05:00pm 17.6 16.2 14.5 82 1.8 NE 15 19 8 10 1014.6 1014.6 0.2
28/04:30pm 17.5 17.2 14.4 82 1.8 ENE 9 13 5 7 1014.8 1014.8 0.2
28/04:00pm 17.4 16.4 14.5 83 1.7 NE 13 19 7 10 1015.0 1015.0 0.2
28/03:30pm 17.9 16.6 13.6 76 2.4 NE 13 17 7 9 1015.4 1015.4 0.0
28/03:00pm 18.2 17.2 13.3 73 2.8 N 11 15 6 8 1016.2 1016.2 0.0
28/02:30pm 18.6 18.3 13.2 71 3.1 N 7 11 4 6 1016.2 1016.2 0.0
28/02:00pm 18.4 18.6 13.1 71 3.0 NNW 4 9 2 5 1016.2 1016.2 0.0
28/01:30pm 17.9 19.0 13.4 75 2.5 CALM 0 0 0 0 1016.6 1016.6 0.0
28/01:00pm 17.7 17.3 13.0 74 2.6 N 7 11 4 6 1017.0 1016.9 0.0
28/12:30pm 17.8 17.1 13.1 74 2.6 NNW 9 13 5 7 1017.2 1017.1 0.0
28/12:00pm 17.7 17.3 13.0 74 2.6 WNW 7 11 4 6 1017.7 1017.6 0.0
28/11:30am 17.9 18.1 13.2 74 2.6 WNW 4 7 2 4 1017.6 1017.5 0.0
28/11:00am 17.7 17.6 13.4 76 2.4 SW 6 9 3 5 1017.7 1017.6 0.0
28/10:30am 17.7 18.8 13.6 77 2.3 CALM 0 0 0 0 1017.9 1017.8 0.0
28/10:00am 17.1 17.7 13.0 77 2.3 SSW 2 6 1 3 1017.7 1017.6 0.0
28/09:30am 16.4 17.7 14.2 87 1.3 CALM 0 0 0 0 1017.9 1017.8 0.0
28/09:00am 16.0 17.1 14.7 92 0.7 NNE 2 6 1 3 1017.9 1017.8 0.2
28/08:30am 15.3 15.5 14.3 94 0.6 N 6 9 3 5 1018.0 1017.9 0.2
28/08:00am 14.6 14.1 13.8 95 0.4 N 9 11 5 6 1018.0 1017.9 0.2
28/07:30am 13.6 13.7 12.8 95 0.4 NNW 4 7 2 4 1017.5 1017.4 0.2
28/07:00am 13.7 13.9 12.9 95 0.4 N 4 7 2 4 1016.9 1016.8 0.2
28/06:30am 13.5 13.6 12.6 94 0.5 N 4 7 2 4 1016.5 1016.5 0.2

Other Formats:

Comma delimited format used in spreadsheet applications
http://www.bom.gov.au/fwo/IDS60801/IDS60801.94820.axf

JavaScript Object Notation format (JSON) in row-major order
http://www.bom.gov.au/fwo/IDS60801/IDS60801.94820.json